sensor_id;sensor_type;location;lat;lon;timestamp;temperature;humidity
17599;DHT22;8918;52.092;5.232;2022-09-09T00:00:25;15.40;99.90
17599;DHT22;8918;52.092;5.232;2022-09-09T00:03:19;15.40;99.90
17599;DHT22;8918;52.092;5.232;2022-09-09T00:08:51;15.40;99.90
17599;DHT22;8918;52.092;5.232;2022-09-09T00:11:28;15.40;99.90
17599;DHT22;8918;52.092;5.232;2022-09-09T00:14:02;15.30;99.90
17599;DHT22;8918;52.092;5.232;2022-09-09T00:16:46;15.30;99.90
17599;DHT22;8918;52.092;5.232;2022-09-09T00:22:14;15.30;99.90
17599;DHT22;8918;52.092;5.232;2022-09-09T00:24:54;15.30;99.90
17599;DHT22;8918;52.092;5.232;2022-09-09T00:27:44;15.20;99.90
17599;DHT22;8918;52.092;5.232;2022-09-09T00:30:26;15.20;99.90
17599;DHT22;8918;52.092;5.232;2022-09-09T00:32:59;15.10;99.90
17599;DHT22;8918;52.092;5.232;2022-09-09T00:35:33;15.20;99.90
17599;DHT22;8918;52.092;5.232;2022-09-09T00:38:26;15.10;99.90
17599;DHT22;8918;52.092;5.232;2022-09-09T00:41:00;15.10;99.90
17599;DHT22;8918;52.092;5.232;2022-09-09T00:43:30;15.00;99.90
17599;DHT22;8918;52.092;5.232;2022-09-09T00:51:17;15.00;99.90
17599;DHT22;8918;52.092;5.232;2022-09-09T00:57:03;15.00;99.90
17599;DHT22;8918;52.092;5.232;2022-09-09T00:59:45;15.00;99.90
17599;DHT22;8918;52.092;5.232;2022-09-09T01:02:27;14.90;99.90
17599;DHT22;8918;52.092;5.232;2022-09-09T01:04:54;14.90;99.90
17599;DHT22;8918;52.092;5.232;2022-09-09T01:07:20;14.90;99.90
17599;DHT22;8918;52.092;5.232;2022-09-09T01:12:38;14.80;99.90
17599;DHT22;8918;52.092;5.232;2022-09-09T01:15:15;14.80;99.90
17599;DHT22;8918;52.092;5.232;2022-09-09T01:20:27;14.80;99.90
17599;DHT22;8918;52.092;5.232;2022-09-09T01:23:08;14.80;99.90
17599;DHT22;8918;52.092;5.232;2022-09-09T01:28:40;14.70;99.90
17599;DHT22;8918;52.092;5.232;2022-09-09T01:31:11;14.70;99.90
17599;DHT22;8918;52.092;5.232;2022-09-09T01:33:37;14.70;99.90
17599;DHT22;8918;52.092;5.232;2022-09-09T01:36:08;14.70;99.90
17599;DHT22;8918;52.092;5.232;2022-09-09T01:38:36;14.70;99.90
17599;DHT22;8918;52.092;5.232;2022-09-09T01:41:03;14.70;99.90
17599;DHT22;8918;52.092;5.232;2022-09-09T01:43:30;14.70;99.90
17599;DHT22;8918;52.092;5.232;2022-09-09T01:46:02;14.70;99.90
17599;DHT22;8918;52.092;5.232;2022-09-09T01:48:28;14.70;99.90
17599;DHT22;8918;52.092;5.232;2022-09-09T01:50:55;14.60;99.90
17599;DHT22;8918;52.092;5.232;2022-09-09T01:53:24;14.60;99.90
17599;DHT22;8918;52.092;5.232;2022-09-09T01:56:00;14.50;99.90
17599;DHT22;8918;52.092;5.232;2022-09-09T02:01:17;14.50;99.90
17599;DHT22;8918;52.092;5.232;2022-09-09T02:03:52;14.50;99.90
17599;DHT22;8918;52.092;5.232;2022-09-09T02:08:57;14.40;99.90
17599;DHT22;8918;52.092;5.232;2022-09-09T02:11:27;14.40;99.90
17599;DHT22;8918;52.092;5.232;2022-09-09T02:14:00;14.40;99.90
17599;DHT22;8918;52.092;5.232;2022-09-09T02:19:17;14.40;99.90
17599;DHT22;8918;52.092;5.232;2022-09-09T02:21:50;14.40;99.90
17599;DHT22;8918;52.092;5.232;2022-09-09T02:24:17;14.40;99.90
17599;DHT22;8918;52.092;5.232;2022-09-09T02:26:44;14.40;99.90
17599;DHT22;8918;52.092;5.232;2022-09-09T02:29:15;14.30;99.90
17599;DHT22;8918;52.092;5.232;2022-09-09T02:31:43;14.30;99.90
17599;DHT22;8918;52.092;5.232;2022-09-09T02:34:10;14.30;99.90
17599;DHT22;8918;52.092;5.232;2022-09-09T02:36:38;14.30;99.90
17599;DHT22;8918;52.092;5.232;2022-09-09T02:39:08;14.30;99.90
17599;DHT22;8918;52.092;5.232;2022-09-09T02:41:37;14.30;99.90
17599;DHT22;8918;52.092;5.232;2022-09-09T02:44:13;14.30;99.90
17599;DHT22;8918;52.092;5.232;2022-09-09T02:55:09;14.20;99.90
17599;DHT22;8918;52.092;5.232;2022-09-09T02:57:38;14.20;99.90
17599;DHT22;8918;52.092;5.232;2022-09-09T03:00:04;14.20;99.90
17599;DHT22;8918;52.092;5.232;2022-09-09T03:02:30;14.20;99.90
17599;DHT22;8918;52.092;5.232;2022-09-09T03:04:56;14.20;99.90
17599;DHT22;8918;52.092;5.232;2022-09-09T03:07:22;14.20;99.90
17599;DHT22;8918;52.092;5.232;2022-09-09T03:09:55;14.20;99.90
17599;DHT22;8918;52.092;5.232;2022-09-09T03:12:21;14.20;99.90
17599;DHT22;8918;52.092;5.232;2022-09-09T03:14:46;14.20;99.90
17599;DHT22;8918;52.092;5.232;2022-09-09T03:17:12;14.10;99.90
17599;DHT22;8918;52.092;5.232;2022-09-09T03:19:38;14.10;99.90
17599;DHT22;8918;52.092;5.232;2022-09-09T03:22:04;14.10;99.90
17599;DHT22;8918;52.092;5.232;2022-09-09T03:24:30;14.10;99.90
17599;DHT22;8918;52.092;5.232;2022-09-09T03:26:55;14.10;99.90
17599;DHT22;8918;52.092;5.232;2022-09-09T03:29:21;14.10;99.90
17599;DHT22;8918;52.092;5.232;2022-09-09T03:31:47;14.10;99.90
17599;DHT22;8918;52.092;5.232;2022-09-09T03:34:12;14.00;99.90
17599;DHT22;8918;52.092;5.232;2022-09-09T03:36:39;14.00;99.90
17599;DHT22;8918;52.092;5.232;2022-09-09T03:39:06;14.00;99.90
17599;DHT22;8918;52.092;5.232;2022-09-09T03:41:32;14.00;99.90
17599;DHT22;8918;52.092;5.232;2022-09-09T03:43:57;14.00;99.90
17599;DHT22;8918;52.092;5.232;2022-09-09T03:46:26;14.00;99.90
17599;DHT22;8918;52.092;5.232;2022-09-09T03:48:52;14.00;99.90
17599;DHT22;8918;52.092;5.232;2022-09-09T03:51:18;13.90;99.90
17599;DHT22;8918;52.092;5.232;2022-09-09T03:53:44;13.90;99.90
17599;DHT22;8918;52.092;5.232;2022-09-09T03:56:09;13.90;99.90
17599;DHT22;8918;52.092;5.232;2022-09-09T03:58:36;14.00;99.90
17599;DHT22;8918;52.092;5.232;2022-09-09T04:01:11;13.90;99.90
17599;DHT22;8918;52.092;5.232;2022-09-09T04:03:40;13.90;99.90
17599;DHT22;8918;52.092;5.232;2022-09-09T04:06:12;13.90;99.90
17599;DHT22;8918;52.092;5.232;2022-09-09T04:08:40;13.90;99.90
17599;DHT22;8918;52.092;5.232;2022-09-09T04:11:06;13.90;99.90
17599;DHT22;8918;52.092;5.232;2022-09-09T04:13:34;13.90;99.90
17599;DHT22;8918;52.092;5.232;2022-09-09T04:16:01;13.90;99.90
17599;DHT22;8918;52.092;5.232;2022-09-09T04:18:27;13.90;99.90
17599;DHT22;8918;52.092;5.232;2022-09-09T04:20:53;13.90;99.90
17599;DHT22;8918;52.092;5.232;2022-09-09T04:23:21;13.90;99.90
17599;DHT22;8918;52.092;5.232;2022-09-09T04:25:48;13.90;99.90
17599;DHT22;8918;52.092;5.232;2022-09-09T04:28:14;13.90;99.90
17599;DHT22;8918;52.092;5.232;2022-09-09T04:30:41;13.90;99.90
17599;DHT22;8918;52.092;5.232;2022-09-09T04:33:07;14.00;99.90
17599;DHT22;8918;52.092;5.232;2022-09-09T04:35:33;14.00;99.90
17599;DHT22;8918;52.092;5.232;2022-09-09T04:37:59;14.00;99.90
17599;DHT22;8918;52.092;5.232;2022-09-09T04:40:24;14.00;99.90
17599;DHT22;8918;52.092;5.232;2022-09-09T04:42:50;13.90;99.90
17599;DHT22;8918;52.092;5.232;2022-09-09T04:45:16;14.00;99.90
17599;DHT22;8918;52.092;5.232;2022-09-09T04:47:42;13.90;99.90
17599;DHT22;8918;52.092;5.232;2022-09-09T04:50:08;14.00;99.90
17599;DHT22;8918;52.092;5.232;2022-09-09T04:52:35;13.90;99.90
17599;DHT22;8918;52.092;5.232;2022-09-09T04:55:01;13.90;99.90
17599;DHT22;8918;52.092;5.232;2022-09-09T04:57:26;13.90;99.90
17599;DHT22;8918;52.092;5.232;2022-09-09T04:59:52;13.90;99.90
17599;DHT22;8918;52.092;5.232;2022-09-09T05:02:18;13.90;99.90
17599;DHT22;8918;52.092;5.232;2022-09-09T05:04:43;13.90;99.90
17599;DHT22;8918;52.092;5.232;2022-09-09T05:07:09;13.90;99.90
17599;DHT22;8918;52.092;5.232;2022-09-09T05:09:35;13.90;99.90
17599;DHT22;8918;52.092;5.232;2022-09-09T05:12:01;13.90;99.90
17599;DHT22;8918;52.092;5.232;2022-09-09T05:14:28;13.90;99.90
17599;DHT22;8918;52.092;5.232;2022-09-09T05:16:54;13.90;99.90
17599;DHT22;8918;52.092;5.232;2022-09-09T05:19:21;14.00;99.90
17599;DHT22;8918;52.092;5.232;2022-09-09T05:21:47;13.90;99.90
17599;DHT22;8918;52.092;5.232;2022-09-09T05:24:12;13.90;99.90
17599;DHT22;8918;52.092;5.232;2022-09-09T05:26:38;14.00;99.90
17599;DHT22;8918;52.092;5.232;2022-09-09T05:29:04;14.00;99.90
17599;DHT22;8918;52.092;5.232;2022-09-09T05:31:30;14.00;99.90
17599;DHT22;8918;52.092;5.232;2022-09-09T05:33:56;14.00;99.90
17599;DHT22;8918;52.092;5.232;2022-09-09T05:36:22;14.00;99.90
17599;DHT22;8918;52.092;5.232;2022-09-09T05:38:50;14.00;99.90
17599;DHT22;8918;52.092;5.232;2022-09-09T05:41:16;14.00;99.90
17599;DHT22;8918;52.092;5.232;2022-09-09T05:43:43;14.00;99.90
17599;DHT22;8918;52.092;5.232;2022-09-09T05:46:20;14.00;99.90
17599;DHT22;8918;52.092;5.232;2022-09-09T05:48:47;14.10;99.90
17599;DHT22;8918;52.092;5.232;2022-09-09T05:51:15;14.10;99.90
17599;DHT22;8918;52.092;5.232;2022-09-09T05:53:43;14.10;99.90
17599;DHT22;8918;52.092;5.232;2022-09-09T05:56:11;14.10;99.90
17599;DHT22;8918;52.092;5.232;2022-09-09T05:58:38;14.10;99.90
17599;DHT22;8918;52.092;5.232;2022-09-09T06:01:09;14.20;99.90
17599;DHT22;8918;52.092;5.232;2022-09-09T06:03:37;14.20;99.90
17599;DHT22;8918;52.092;5.232;2022-09-09T06:06:05;14.20;99.90
17599;DHT22;8918;52.092;5.232;2022-09-09T06:08:32;14.20;99.90
17599;DHT22;8918;52.092;5.232;2022-09-09T06:11:02;14.20;99.90
17599;DHT22;8918;52.092;5.232;2022-09-09T06:13:29;14.30;99.90
17599;DHT22;8918;52.092;5.232;2022-09-09T06:15:55;14.30;99.90
17599;DHT22;8918;52.092;5.232;2022-09-09T06:18:20;14.40;99.90
17599;DHT22;8918;52.092;5.232;2022-09-09T06:21:00;14.40;99.90
17599;DHT22;8918;52.092;5.232;2022-09-09T06:23:27;14.40;99.90
17599;DHT22;8918;52.092;5.232;2022-09-09T06:26:05;14.50;99.90
17599;DHT22;8918;52.092;5.232;2022-09-09T06:28:32;14.60;99.90
17599;DHT22;8918;52.092;5.232;2022-09-09T06:31:03;14.60;99.90
17599;DHT22;8918;52.092;5.232;2022-09-09T06:33:41;14.70;99.90
17599;DHT22;8918;52.092;5.232;2022-09-09T06:36:12;14.80;99.90
17599;DHT22;8918;52.092;5.232;2022-09-09T06:38:39;14.90;99.90
17599;DHT22;8918;52.092;5.232;2022-09-09T06:41:04;15.00;99.90
17599;DHT22;8918;52.092;5.232;2022-09-09T06:43:31;15.00;99.90
17599;DHT22;8918;52.092;5.232;2022-09-09T06:48:23;15.10;99.90
17599;DHT22;8918;52.092;5.232;2022-09-09T06:50:48;15.20;99.90
17599;DHT22;8918;52.092;5.232;2022-09-09T06:53:17;15.30;99.90
17599;DHT22;8918;52.092;5.232;2022-09-09T06:55:45;15.30;99.90
17599;DHT22;8918;52.092;5.232;2022-09-09T06:58:11;15.40;99.90
17599;DHT22;8918;52.092;5.232;2022-09-09T07:00:36;15.50;99.90
17599;DHT22;8918;52.092;5.232;2022-09-09T07:03:05;15.60;99.90
17599;DHT22;8918;52.092;5.232;2022-09-09T07:05:34;15.70;99.90
17599;DHT22;8918;52.092;5.232;2022-09-09T07:08:00;15.80;99.90
17599;DHT22;8918;52.092;5.232;2022-09-09T07:10:25;15.90;99.90
17599;DHT22;8918;52.092;5.232;2022-09-09T07:12:52;16.00;99.90
17599;DHT22;8918;52.092;5.232;2022-09-09T07:15:18;16.00;99.90
17599;DHT22;8918;52.092;5.232;2022-09-09T07:17:44;16.10;99.90
17599;DHT22;8918;52.092;5.232;2022-09-09T07:20:10;16.20;99.90
17599;DHT22;8918;52.092;5.232;2022-09-09T07:22:36;16.40;99.90
17599;DHT22;8918;52.092;5.232;2022-09-09T07:25:01;16.40;99.90
17599;DHT22;8918;52.092;5.232;2022-09-09T07:27:27;16.40;99.90
17599;DHT22;8918;52.092;5.232;2022-09-09T07:29:53;16.50;99.90
17599;DHT22;8918;52.092;5.232;2022-09-09T07:32:19;16.60;99.90
17599;DHT22;8918;52.092;5.232;2022-09-09T07:34:46;16.60;99.90
17599;DHT22;8918;52.092;5.232;2022-09-09T07:37:12;16.70;99.90
17599;DHT22;8918;52.092;5.232;2022-09-09T07:39:39;16.70;99.90
17599;DHT22;8918;52.092;5.232;2022-09-09T07:42:05;16.70;99.90
17599;DHT22;8918;52.092;5.232;2022-09-09T07:44:31;16.70;99.90
17599;DHT22;8918;52.092;5.232;2022-09-09T07:47:00;16.60;99.90
17599;DHT22;8918;52.092;5.232;2022-09-09T07:49:26;16.50;99.90
17599;DHT22;8918;52.092;5.232;2022-09-09T07:51:51;16.50;99.90
17599;DHT22;8918;52.092;5.232;2022-09-09T07:54:19;16.60;99.90
17599;DHT22;8918;52.092;5.232;2022-09-09T07:56:50;16.60;99.90
17599;DHT22;8918;52.092;5.232;2022-09-09T07:59:16;16.60;99.90
17599;DHT22;8918;52.092;5.232;2022-09-09T08:01:45;16.70;99.90
17599;DHT22;8918;52.092;5.232;2022-09-09T08:04:15;16.70;99.90
17599;DHT22;8918;52.092;5.232;2022-09-09T08:06:43;16.70;99.90
17599;DHT22;8918;52.092;5.232;2022-09-09T08:09:10;16.60;99.90
17599;DHT22;8918;52.092;5.232;2022-09-09T08:11:36;16.60;99.90
17599;DHT22;8918;52.092;5.232;2022-09-09T08:14:03;16.60;99.90
17599;DHT22;8918;52.092;5.232;2022-09-09T08:16:31;16.60;99.90
17599;DHT22;8918;52.092;5.232;2022-09-09T08:18:58;16.60;99.90
17599;DHT22;8918;52.092;5.232;2022-09-09T08:21:30;16.60;99.90
17599;DHT22;8918;52.092;5.232;2022-09-09T08:23:58;16.70;99.90
17599;DHT22;8918;52.092;5.232;2022-09-09T08:26:26;16.70;99.90
17599;DHT22;8918;52.092;5.232;2022-09-09T08:28:56;16.70;99.90
17599;DHT22;8918;52.092;5.232;2022-09-09T08:31:24;16.70;99.90
17599;DHT22;8918;52.092;5.232;2022-09-09T08:33:50;16.70;99.90
17599;DHT22;8918;52.092;5.232;2022-09-09T08:36:19;16.70;99.90
17599;DHT22;8918;52.092;5.232;2022-09-09T08:38:53;16.70;99.90
17599;DHT22;8918;52.092;5.232;2022-09-09T08:52:25;16.90;99.90
17599;DHT22;8918;52.092;5.232;2022-09-09T08:54:55;16.80;99.90
17599;DHT22;8918;52.092;5.232;2022-09-09T08:57:25;16.80;99.90
17599;DHT22;8918;52.092;5.232;2022-09-09T08:59:55;16.80;99.90
17599;DHT22;8918;52.092;5.232;2022-09-09T09:02:34;16.80;99.90
17599;DHT22;8918;52.092;5.232;2022-09-09T09:08:16;16.80;99.90
17599;DHT22;8918;52.092;5.232;2022-09-09T09:10:50;16.80;99.90
17599;DHT22;8918;52.092;5.232;2022-09-09T09:13:34;16.80;99.90
17599;DHT22;8918;52.092;5.232;2022-09-09T09:16:10;16.90;99.90
17599;DHT22;8918;52.092;5.232;2022-09-09T09:18:39;16.80;99.90
17599;DHT22;8918;52.092;5.232;2022-09-09T09:21:07;16.80;99.90
17599;DHT22;8918;52.092;5.232;2022-09-09T09:23:45;16.80;99.90
17599;DHT22;8918;52.092;5.232;2022-09-09T09:26:12;16.80;99.90
17599;DHT22;8918;52.092;5.232;2022-09-09T09:28:39;16.80;99.90
17599;DHT22;8918;52.092;5.232;2022-09-09T09:31:08;16.80;99.90
17599;DHT22;8918;52.092;5.232;2022-09-09T09:33:52;16.80;99.90
17599;DHT22;8918;52.092;5.232;2022-09-09T09:36:19;16.90;99.90
17599;DHT22;8918;52.092;5.232;2022-09-09T09:38:59;16.90;99.90
17599;DHT22;8918;52.092;5.232;2022-09-09T09:41:36;16.90;99.90
17599;DHT22;8918;52.092;5.232;2022-09-09T09:44:04;16.80;99.90
17599;DHT22;8918;52.092;5.232;2022-09-09T09:46:30;16.80;99.90
17599;DHT22;8918;52.092;5.232;2022-09-09T09:49:04;16.80;99.90
17599;DHT22;8918;52.092;5.232;2022-09-09T09:51:34;16.70;99.90
17599;DHT22;8918;52.092;5.232;2022-09-09T09:54:27;16.70;99.90
17599;DHT22;8918;52.092;5.232;2022-09-09T09:56:53;16.60;99.90
17599;DHT22;8918;52.092;5.232;2022-09-09T09:59:23;16.50;99.90
17599;DHT22;8918;52.092;5.232;2022-09-09T10:01:49;16.40;99.90
17599;DHT22;8918;52.092;5.232;2022-09-09T10:04:16;16.40;99.90
17599;DHT22;8918;52.092;5.232;2022-09-09T10:06:44;16.40;99.90
17599;DHT22;8918;52.092;5.232;2022-09-09T10:09:29;16.50;99.90
17599;DHT22;8918;52.092;5.232;2022-09-09T10:26:13;16.50;99.90
17599;DHT22;8918;52.092;5.232;2022-09-09T10:31:53;16.40;99.90
17599;DHT22;8918;52.092;5.232;2022-09-09T10:37:46;16.50;99.90
17599;DHT22;8918;52.092;5.232;2022-09-09T10:40:38;16.70;99.90
17599;DHT22;8918;52.092;5.232;2022-09-09T10:43:13;16.70;99.90
17599;DHT22;8918;52.092;5.232;2022-09-09T10:48:35;16.80;99.90
17599;DHT22;8918;52.092;5.232;2022-09-09T10:54:04;17.00;99.90
17599;DHT22;8918;52.092;5.232;2022-09-09T10:56:33;17.00;99.90
17599;DHT22;8918;52.092;5.232;2022-09-09T10:59:04;17.00;99.90
17599;DHT22;8918;52.092;5.232;2022-09-09T11:01:37;17.10;99.90
17599;DHT22;8918;52.092;5.232;2022-09-09T11:04:35;17.10;99.90
17599;DHT22;8918;52.092;5.232;2022-09-09T11:07:08;17.20;99.90
17599;DHT22;8918;52.092;5.232;2022-09-09T11:09:40;17.10;99.90
17599;DHT22;8918;52.092;5.232;2022-09-09T11:12:14;17.20;99.90
17599;DHT22;8918;52.092;5.232;2022-09-09T11:14:54;17.20;99.90
17599;DHT22;8918;52.092;5.232;2022-09-09T11:17:26;17.20;99.90
17599;DHT22;8918;52.092;5.232;2022-09-09T11:19:55;17.10;99.90
17599;DHT22;8918;52.092;5.232;2022-09-09T11:27:50;17.20;99.90
17599;DHT22;8918;52.092;5.232;2022-09-09T11:30:34;17.20;99.90
17599;DHT22;8918;52.092;5.232;2022-09-09T11:38:25;17.40;99.90
17599;DHT22;8918;52.092;5.232;2022-09-09T11:40:58;17.40;99.90
17599;DHT22;8918;52.092;5.232;2022-09-09T11:43:30;17.30;99.90
17599;DHT22;8918;52.092;5.232;2022-09-09T11:45:59;17.30;99.90
17599;DHT22;8918;52.092;5.232;2022-09-09T11:51:09;17.30;99.90
17599;DHT22;8918;52.092;5.232;2022-09-09T11:53:56;17.10;99.90
17599;DHT22;8918;52.092;5.232;2022-09-09T11:56:41;17.00;99.90
17599;DHT22;8918;52.092;5.232;2022-09-09T11:59:37;17.00;99.90
17599;DHT22;8918;52.092;5.232;2022-09-09T12:02:24;16.90;99.90
17599;DHT22;8918;52.092;5.232;2022-09-09T12:07:37;16.90;99.90
17599;DHT22;8918;52.092;5.232;2022-09-09T12:10:27;16.90;99.90
17599;DHT22;8918;52.092;5.232;2022-09-09T12:12:54;16.90;99.90
17599;DHT22;8918;52.092;5.232;2022-09-09T12:15:28;16.90;99.90
17599;DHT22;8918;52.092;5.232;2022-09-09T12:17:56;16.90;99.90
17599;DHT22;8918;52.092;5.232;2022-09-09T12:20:30;16.90;99.90
17599;DHT22;8918;52.092;5.232;2022-09-09T12:25:58;16.90;99.90
17599;DHT22;8918;52.092;5.232;2022-09-09T12:28:48;16.90;99.90
17599;DHT22;8918;52.092;5.232;2022-09-09T12:34:09;16.90;99.90
17599;DHT22;8918;52.092;5.232;2022-09-09T12:36:35;16.90;99.90
17599;DHT22;8918;52.092;5.232;2022-09-09T12:39:15;17.00;99.90
17599;DHT22;8918;52.092;5.232;2022-09-09T12:41:54;17.00;99.90
17599;DHT22;8918;52.092;5.232;2022-09-09T12:44:22;17.20;99.90
17599;DHT22;8918;52.092;5.232;2022-09-09T12:46:48;17.30;99.90
17599;DHT22;8918;52.092;5.232;2022-09-09T12:49:34;17.50;99.90
17599;DHT22;8918;52.092;5.232;2022-09-09T12:52:02;17.70;99.90
17599;DHT22;8918;52.092;5.232;2022-09-09T12:54:31;17.80;99.90
17599;DHT22;8918;52.092;5.232;2022-09-09T12:56:57;17.90;99.90
17599;DHT22;8918;52.092;5.232;2022-09-09T12:59:38;17.90;99.90
17599;DHT22;8918;52.092;5.232;2022-09-09T13:02:23;17.90;99.90
17599;DHT22;8918;52.092;5.232;2022-09-09T13:04:49;17.90;99.90
17599;DHT22;8918;52.092;5.232;2022-09-09T13:07:17;17.90;99.90
17599;DHT22;8918;52.092;5.232;2022-09-09T13:09:44;17.90;99.90
17599;DHT22;8918;52.092;5.232;2022-09-09T13:12:20;17.90;99.90
17599;DHT22;8918;52.092;5.232;2022-09-09T13:14:50;18.00;99.90
17599;DHT22;8918;52.092;5.232;2022-09-09T13:17:24;18.00;99.90
17599;DHT22;8918;52.092;5.232;2022-09-09T13:19:51;18.10;99.90
17599;DHT22;8918;52.092;5.232;2022-09-09T13:25:06;17.90;99.90
17599;DHT22;8918;52.092;5.232;2022-09-09T13:27:38;17.80;99.90
17599;DHT22;8918;52.092;5.232;2022-09-09T13:33:06;17.70;99.90
17599;DHT22;8918;52.092;5.232;2022-09-09T13:35:33;17.70;99.90
17599;DHT22;8918;52.092;5.232;2022-09-09T13:38:06;17.70;99.90
17599;DHT22;8918;52.092;5.232;2022-09-09T13:40:32;17.70;99.90
17599;DHT22;8918;52.092;5.232;2022-09-09T13:42:59;17.70;99.90
17599;DHT22;8918;52.092;5.232;2022-09-09T13:45:26;17.70;99.90
17599;DHT22;8918;52.092;5.232;2022-09-09T13:47:53;17.70;99.90
17599;DHT22;8918;52.092;5.232;2022-09-09T13:50:30;17.60;99.90
17599;DHT22;8918;52.092;5.232;2022-09-09T13:52:58;17.60;99.90
17599;DHT22;8918;52.092;5.232;2022-09-09T13:55:25;17.60;99.90
17599;DHT22;8918;52.092;5.232;2022-09-09T14:00:21;17.60;99.90
17599;DHT22;8918;52.092;5.232;2022-09-09T14:02:48;17.60;99.90
17599;DHT22;8918;52.092;5.232;2022-09-09T14:05:14;17.60;99.90
17599;DHT22;8918;52.092;5.232;2022-09-09T14:07:41;17.50;99.90
17599;DHT22;8918;52.092;5.232;2022-09-09T14:10:08;17.50;99.90
17599;DHT22;8918;52.092;5.232;2022-09-09T14:12:34;17.50;99.90
17599;DHT22;8918;52.092;5.232;2022-09-09T14:15:01;17.50;99.90
17599;DHT22;8918;52.092;5.232;2022-09-09T14:17:27;17.40;99.90
17599;DHT22;8918;52.092;5.232;2022-09-09T14:19:55;17.40;99.90
17599;DHT22;8918;52.092;5.232;2022-09-09T14:22:21;17.40;99.90
17599;DHT22;8918;52.092;5.232;2022-09-09T14:24:47;17.30;99.90
17599;DHT22;8918;52.092;5.232;2022-09-09T14:27:13;17.20;99.90
17599;DHT22;8918;52.092;5.232;2022-09-09T14:29:39;17.20;99.90
17599;DHT22;8918;52.092;5.232;2022-09-09T14:32:04;17.10;99.90
17599;DHT22;8918;52.092;5.232;2022-09-09T14:34:30;17.10;99.90
17599;DHT22;8918;52.092;5.232;2022-09-09T14:36:57;17.10;99.90
17599;DHT22;8918;52.092;5.232;2022-09-09T14:39:23;17.10;99.90
17599;DHT22;8918;52.092;5.232;2022-09-09T14:41:49;17.20;99.90
17599;DHT22;8918;52.092;5.232;2022-09-09T14:44:14;17.20;99.90
17599;DHT22;8918;52.092;5.232;2022-09-09T14:46:41;17.30;99.90
17599;DHT22;8918;52.092;5.232;2022-09-09T14:49:08;17.50;99.90
17599;DHT22;8918;52.092;5.232;2022-09-09T14:51:35;17.80;99.90
17599;DHT22;8918;52.092;5.232;2022-09-09T14:54:01;17.90;99.90
17599;DHT22;8918;52.092;5.232;2022-09-09T14:56:29;18.00;99.90
17599;DHT22;8918;52.092;5.232;2022-09-09T14:58:57;18.00;99.90
17599;DHT22;8918;52.092;5.232;2022-09-09T15:01:23;18.00;99.90
17599;DHT22;8918;52.092;5.232;2022-09-09T15:03:51;17.90;99.90
17599;DHT22;8918;52.092;5.232;2022-09-09T15:06:18;17.90;99.90
17599;DHT22;8918;52.092;5.232;2022-09-09T15:08:45;17.80;99.90
17599;DHT22;8918;52.092;5.232;2022-09-09T15:11:12;17.70;99.90
17599;DHT22;8918;52.092;5.232;2022-09-09T15:13:39;17.70;99.90
17599;DHT22;8918;52.092;5.232;2022-09-09T15:18:38;17.50;99.90
17599;DHT22;8918;52.092;5.232;2022-09-09T15:21:15;17.50;99.90
17599;DHT22;8918;52.092;5.232;2022-09-09T15:23:42;17.60;99.90
17599;DHT22;8918;52.092;5.232;2022-09-09T15:26:08;17.50;99.90
17599;DHT22;8918;52.092;5.232;2022-09-09T15:28:35;17.50;99.90
17599;DHT22;8918;52.092;5.232;2022-09-09T15:31:38;17.40;99.90
17599;DHT22;8918;52.092;5.232;2022-09-09T15:33:59;17.40;99.90
17599;DHT22;8918;52.092;5.232;2022-09-09T15:36:50;17.40;99.90
17599;DHT22;8918;52.092;5.232;2022-09-09T15:39:17;17.40;99.90
17599;DHT22;8918;52.092;5.232;2022-09-09T15:41:46;17.40;99.90
17599;DHT22;8918;52.092;5.232;2022-09-09T15:44:13;17.40;99.90
17599;DHT22;8918;52.092;5.232;2022-09-09T15:49:16;17.50;99.90
17599;DHT22;8918;52.092;5.232;2022-09-09T15:51:45;17.50;99.90
17599;DHT22;8918;52.092;5.232;2022-09-09T15:54:14;17.70;99.90
17599;DHT22;8918;52.092;5.232;2022-09-09T15:56:42;17.70;99.90
17599;DHT22;8918;52.092;5.232;2022-09-09T15:59:08;17.70;99.90
17599;DHT22;8918;52.092;5.232;2022-09-09T16:01:34;17.80;99.90
17599;DHT22;8918;52.092;5.232;2022-09-09T16:04:00;17.80;99.90
17599;DHT22;8918;52.092;5.232;2022-09-09T16:06:27;17.80;99.90
17599;DHT22;8918;52.092;5.232;2022-09-09T16:08:54;17.90;99.90
17599;DHT22;8918;52.092;5.232;2022-09-09T16:11:26;17.90;99.90
17599;DHT22;8918;52.092;5.232;2022-09-09T16:13:54;17.90;99.90
17599;DHT22;8918;52.092;5.232;2022-09-09T16:16:22;18.00;99.90
17599;DHT22;8918;52.092;5.232;2022-09-09T16:18:50;18.00;99.90
17599;DHT22;8918;52.092;5.232;2022-09-09T16:21:25;18.00;99.90
17599;DHT22;8918;52.092;5.232;2022-09-09T16:23:55;17.90;99.90
17599;DHT22;8918;52.092;5.232;2022-09-09T16:26:22;17.80;99.90
17599;DHT22;8918;52.092;5.232;2022-09-09T16:28:48;17.80;99.90
17599;DHT22;8918;52.092;5.232;2022-09-09T16:31:18;17.70;99.90
17599;DHT22;8918;52.092;5.232;2022-09-09T16:33:44;17.70;99.90
17599;DHT22;8918;52.092;5.232;2022-09-09T16:36:13;17.60;99.90
17599;DHT22;8918;52.092;5.232;2022-09-09T16:38:39;17.60;99.90
17599;DHT22;8918;52.092;5.232;2022-09-09T16:41:06;17.60;99.90
17599;DHT22;8918;52.092;5.232;2022-09-09T16:43:33;17.60;99.90
17599;DHT22;8918;52.092;5.232;2022-09-09T16:45:59;17.60;99.90
17599;DHT22;8918;52.092;5.232;2022-09-09T16:48:27;17.60;99.90
17599;DHT22;8918;52.092;5.232;2022-09-09T16:50:52;17.60;99.90
17599;DHT22;8918;52.092;5.232;2022-09-09T16:53:18;17.50;99.90
17599;DHT22;8918;52.092;5.232;2022-09-09T16:55:44;17.50;99.90
17599;DHT22;8918;52.092;5.232;2022-09-09T16:58:12;17.40;99.90
17599;DHT22;8918;52.092;5.232;2022-09-09T17:00:38;17.40;99.90
17599;DHT22;8918;52.092;5.232;2022-09-09T17:03:03;17.40;99.90
17599;DHT22;8918;52.092;5.232;2022-09-09T17:05:29;17.40;99.90
17599;DHT22;8918;52.092;5.232;2022-09-09T17:07:55;17.40;99.90
17599;DHT22;8918;52.092;5.232;2022-09-09T17:10:23;17.30;99.90
17599;DHT22;8918;52.092;5.232;2022-09-09T17:12:49;17.30;99.90
17599;DHT22;8918;52.092;5.232;2022-09-09T17:15:15;17.30;99.90
17599;DHT22;8918;52.092;5.232;2022-09-09T17:17:41;17.30;99.90
17599;DHT22;8918;52.092;5.232;2022-09-09T17:20:09;17.30;99.90
17599;DHT22;8918;52.092;5.232;2022-09-09T17:22:35;17.30;99.90
17599;DHT22;8918;52.092;5.232;2022-09-09T17:25:00;17.30;99.90
17599;DHT22;8918;52.092;5.232;2022-09-09T17:27:26;17.30;99.90
17599;DHT22;8918;52.092;5.232;2022-09-09T17:29:51;17.30;99.90
17599;DHT22;8918;52.092;5.232;2022-09-09T17:32:17;17.30;99.90
17599;DHT22;8918;52.092;5.232;2022-09-09T17:34:43;17.30;99.90
17599;DHT22;8918;52.092;5.232;2022-09-09T17:37:09;17.30;99.90
17599;DHT22;8918;52.092;5.232;2022-09-09T17:39:35;17.30;99.90
17599;DHT22;8918;52.092;5.232;2022-09-09T17:42:01;17.30;99.90
17599;DHT22;8918;52.092;5.232;2022-09-09T17:44:27;17.30;99.90
17599;DHT22;8918;52.092;5.232;2022-09-09T17:46:54;17.30;99.90
17599;DHT22;8918;52.092;5.232;2022-09-09T17:49:20;17.30;99.90
17599;DHT22;8918;52.092;5.232;2022-09-09T17:51:46;17.30;99.90
17599;DHT22;8918;52.092;5.232;2022-09-09T17:54:15;17.30;99.90
17599;DHT22;8918;52.092;5.232;2022-09-09T17:56:41;17.30;99.90